Union, Ohio
Current Conditions -  °F | °C
As of 2:56 PM on Friday 19 Dec 2014 (Local Time) from KDAY Reporting Station
Haze Haze  
Wind Chill: 31°   Ceiling: 2200
Heat Index: 31°   Visibility: 6mi
Dew Point: 23°   Wind: 3mph
Humidity: 72%   Direction: 260°W
Pressure: 30.25"   Gusts: NA
Location:  39.8939°N, 84.3314°W
Report Text: KDAY 191956Z 26003KT 6SM HZ FEW016 OVC022 M01/M05 A3025 RMK AO2 SLP255 T10061050
Loading
Personal Weather Stations






























Interactive Weather Map New forecast layout! Learn more

10-Day Weather Forecast

Advertisements
Track Severe Weather on mobile